createdAt,value
2023-05-26T00:01:59.799Z,21.60
2023-05-26T00:04:47.781Z,21.60
2023-05-26T00:07:36.061Z,21.60
2023-05-26T00:10:26.541Z,21.60
2023-05-26T00:13:14.134Z,21.60
2023-05-26T00:16:02.182Z,21.60
2023-05-26T00:18:49.706Z,21.60
2023-05-26T00:21:37.775Z,21.50
2023-05-26T00:24:25.350Z,21.60
2023-05-26T00:27:14.870Z,21.50
2023-05-26T00:30:02.597Z,21.50
2023-05-26T00:32:50.486Z,21.50
2023-05-26T00:35:38.562Z,21.50
2023-05-26T00:38:26.737Z,21.50
2023-05-26T00:41:14.589Z,21.50
2023-05-26T00:44:03.743Z,21.50
2023-05-26T00:46:51.370Z,21.50
2023-05-26T00:49:39.355Z,21.50
2023-05-26T00:52:27.327Z,21.50
2023-05-26T00:55:15.383Z,21.50
2023-05-26T00:58:03.120Z,21.50
2023-05-26T01:00:52.093Z,21.50
2023-05-26T01:03:40.613Z,21.40
2023-05-26T01:06:29.102Z,21.50
2023-05-26T01:09:17.008Z,21.50
2023-05-26T01:12:07.637Z,21.40
2023-05-26T01:14:56.545Z,21.50
2023-05-26T01:17:49.644Z,21.50
2023-05-26T01:20:40.211Z,21.50
2023-05-26T01:23:36.839Z,21.50
2023-05-26T01:26:38.085Z,21.50
2023-05-26T01:29:27.437Z,21.40
2023-05-26T01:32:16.718Z,21.40
2023-05-26T01:35:04.940Z,21.40
2023-05-26T01:37:52.607Z,21.40
2023-05-26T01:40:40.596Z,21.40
2023-05-26T01:43:32.575Z,21.40
2023-05-26T01:46:26.536Z,21.40
2023-05-26T01:49:14.103Z,21.40
2023-05-26T01:52:04.066Z,21.40
2023-05-26T01:54:55.555Z,21.40
2023-05-26T01:57:43.817Z,21.40
2023-05-26T02:00:32.162Z,21.40
2023-05-26T02:03:21.291Z,21.40
2023-05-26T02:06:09.395Z,21.40
2023-05-26T02:08:58.948Z,21.40
2023-05-26T02:11:46.641Z,21.40
2023-05-26T02:14:35.376Z,21.40
2023-05-26T02:17:22.938Z,21.40
2023-05-26T02:20:12.759Z,21.40
2023-05-26T02:23:01.001Z,21.40
2023-05-26T02:25:48.699Z,21.40
2023-05-26T02:28:36.166Z,21.40
2023-05-26T02:31:24.379Z,21.40
2023-05-26T02:34:12.078Z,21.40
2023-05-26T02:37:01.448Z,21.40
2023-05-26T02:39:49.031Z,21.40
2023-05-26T02:42:36.978Z,21.40
2023-05-26T02:45:24.857Z,21.40
2023-05-26T02:48:12.788Z,21.40
2023-05-26T02:51:00.700Z,21.40
2023-05-26T02:53:49.855Z,21.50
2023-05-26T02:56:37.362Z,21.40
2023-05-26T02:59:25.076Z,21.50
2023-05-26T03:02:12.835Z,21.50
2023-05-26T03:05:01.805Z,21.50
2023-05-26T03:07:51.440Z,21.40
2023-05-26T03:10:41.342Z,21.50
2023-05-26T03:13:30.426Z,21.50
2023-05-26T03:16:18.044Z,21.40
2023-05-26T03:19:06.875Z,21.50
2023-05-26T03:21:56.791Z,21.50
2023-05-26T03:25:02.038Z,21.50
2023-05-26T03:27:58.881Z,21.50
2023-05-26T03:30:46.689Z,21.50
2023-05-26T03:33:34.695Z,21.50
2023-05-26T03:36:22.385Z,21.50
2023-05-26T03:39:11.883Z,21.50
2023-05-26T03:41:59.630Z,21.50
2023-05-26T03:44:50.718Z,21.50
2023-05-26T03:47:38.996Z,21.50
2023-05-26T03:50:27.732Z,21.50
2023-05-26T03:53:15.351Z,21.50
2023-05-26T03:56:04.407Z,21.50
2023-05-26T03:58:52.256Z,21.50
2023-05-26T04:01:41.538Z,21.50
2023-05-26T04:04:29.185Z,21.50
2023-05-26T04:07:18.300Z,21.50
2023-05-26T04:10:06.219Z,21.50
2023-05-26T04:12:54.057Z,21.50
2023-05-26T04:15:41.471Z,21.50
2023-05-26T04:18:30.624Z,21.50
2023-05-26T04:21:18.476Z,21.50
2023-05-26T04:24:07.388Z,21.50
2023-05-26T04:26:55.201Z,21.50
2023-05-26T04:29:54.975Z,21.50
2023-05-26T04:32:58.679Z,21.50
2023-05-26T04:36:14.579Z,21.50
2023-05-26T04:39:02.878Z,21.50
2023-05-26T04:41:51.195Z,21.50
2023-05-26T04:44:41.539Z,21.50
2023-05-26T04:47:33.492Z,21.50
2023-05-26T04:50:24.083Z,21.50
2023-05-26T04:53:13.338Z,21.50
2023-05-26T04:56:04.314Z,21.50
2023-05-26T04:59:00.175Z,21.50
2023-05-26T05:01:48.731Z,21.50
2023-05-26T05:05:03.826Z,21.50
2023-05-26T05:07:52.109Z,21.50
2023-05-26T05:10:42.222Z,21.50
2023-05-26T05:13:30.470Z,21.50
2023-05-26T05:16:18.289Z,21.50
2023-05-26T05:19:06.065Z,21.40
2023-05-26T05:21:59.057Z,21.50
2023-05-26T05:24:48.299Z,21.40
2023-05-26T05:27:37.371Z,21.50
2023-05-26T05:30:26.204Z,21.50
2023-05-26T05:33:15.606Z,21.50
2023-05-26T05:36:03.270Z,21.50
2023-05-26T05:38:51.077Z,21.50
2023-05-26T05:41:38.570Z,21.60
2023-05-26T05:44:27.624Z,21.50
2023-05-26T05:47:15.507Z,21.60
2023-05-26T05:50:09.066Z,21.50
2023-05-26T05:52:57.492Z,21.60
2023-05-26T05:55:47.484Z,21.60
2023-05-26T05:58:35.427Z,21.60
2023-05-26T06:01:24.482Z,21.60
2023-05-26T06:04:13.466Z,21.60
2023-05-26T06:07:01.215Z,21.60
2023-05-26T06:09:49.263Z,21.70
2023-05-26T06:12:37.087Z,21.60
2023-05-26T06:15:24.988Z,21.70
2023-05-26T06:18:14.129Z,21.70
2023-05-26T06:21:03.781Z,21.70
2023-05-26T06:23:53.914Z,21.70
2023-05-26T06:26:41.863Z,21.70
2023-05-26T06:29:32.744Z,21.70
2023-05-26T06:32:21.092Z,21.70
2023-05-26T06:35:11.281Z,21.70
2023-05-26T06:37:58.877Z,21.70
2023-05-26T06:40:47.194Z,21.70
2023-05-26T06:43:36.292Z,21.70
2023-05-26T06:46:25.443Z,21.70
2023-05-26T06:49:13.679Z,21.80
2023-05-26T06:52:09.622Z,21.70
2023-05-26T06:54:57.597Z,21.70
2023-05-26T06:57:45.580Z,21.80
2023-05-26T07:00:33.446Z,21.80
2023-05-26T07:03:34.491Z,21.80
2023-05-26T07:06:23.839Z,21.80
2023-05-26T07:09:17.207Z,21.80
2023-05-26T07:12:20.236Z,21.80
2023-05-26T07:15:11.989Z,21.90
2023-05-26T07:17:59.606Z,21.80
2023-05-26T07:20:49.463Z,21.80
2023-05-26T07:23:37.244Z,21.80
2023-05-26T07:26:27.352Z,21.90
2023-05-26T07:29:15.421Z,21.90
2023-05-26T07:32:03.154Z,21.90
2023-05-26T07:34:51.015Z,21.80
2023-05-26T07:37:38.673Z,21.90
2023-05-26T07:40:26.420Z,21.90
2023-05-26T07:43:15.577Z,21.90
2023-05-26T07:46:03.417Z,21.90
2023-05-26T07:48:51.328Z,21.90
2023-05-26T07:51:39.088Z,21.90
2023-05-26T07:54:27.144Z,21.90
2023-05-26T07:57:28.273Z,21.90
2023-05-26T08:00:19.120Z,21.90
2023-05-26T08:03:07.372Z,21.90
2023-05-26T08:05:55.160Z,21.90
2023-05-26T08:08:42.934Z,21.90
2023-05-26T08:11:30.515Z,21.90
2023-05-26T08:14:18.931Z,21.90
2023-05-26T08:17:08.049Z,21.90
2023-05-26T08:19:55.875Z,21.90
2023-05-26T08:22:43.787Z,21.90
2023-05-26T08:25:31.593Z,22.00
2023-05-26T08:28:19.487Z,22.00
2023-05-26T08:31:07.431Z,22.00
2023-05-26T08:33:56.503Z,22.00
2023-05-26T08:36:44.308Z,22.00
2023-05-26T08:39:32.303Z,22.00
2023-05-26T08:42:27.695Z,22.00
2023-05-26T08:45:18.291Z,22.00
2023-05-26T08:48:09.054Z,22.00
2023-05-26T08:50:58.066Z,22.00
2023-05-26T08:53:45.959Z,22.00
2023-05-26T08:56:34.082Z,22.00
2023-05-26T08:59:21.764Z,22.00
2023-05-26T09:02:10.353Z,22.00
2023-05-26T09:04:57.755Z,22.00
2023-05-26T09:07:47.136Z,22.00
2023-05-26T09:10:34.821Z,22.00
2023-05-26T09:13:22.680Z,22.00
2023-05-26T09:16:17.860Z,22.00
2023-05-26T09:19:06.274Z,22.00
2023-05-26T09:21:54.573Z,22.00
2023-05-26T09:24:47.407Z,22.00
2023-05-26T09:27:35.562Z,22.10
2023-05-26T09:30:23.617Z,22.10
2023-05-26T09:33:12.846Z,22.10
2023-05-26T09:36:00.854Z,22.10
2023-05-26T09:38:48.465Z,22.10
2023-05-26T09:41:41.125Z,22.10
2023-05-26T09:44:28.707Z,22.10
2023-05-26T09:47:21.277Z,22.10
2023-05-26T09:50:09.704Z,22.10
2023-05-26T09:52:58.544Z,22.10
2023-05-26T09:55:46.561Z,22.10
2023-05-26T09:58:40.173Z,22.10
2023-05-26T10:01:28.241Z,22.10
2023-05-26T10:04:16.659Z,22.10
2023-05-26T10:07:04.625Z,22.10
2023-05-26T10:09:53.580Z,22.10
2023-05-26T10:12:41.452Z,22.10
2023-05-26T10:15:30.689Z,22.10
2023-05-26T10:18:18.641Z,22.10
2023-05-26T10:21:07.871Z,22.10
2023-05-26T10:24:00.281Z,22.10
2023-05-26T10:26:53.802Z,22.10
2023-05-26T10:29:47.102Z,22.10
2023-05-26T10:32:46.516Z,22.10
2023-05-26T10:35:34.244Z,22.10
2023-05-26T10:38:21.847Z,22.10
2023-05-26T10:41:13.801Z,22.10
2023-05-26T10:44:02.142Z,22.10
2023-05-26T10:46:50.056Z,22.20
2023-05-26T10:49:39.258Z,22.10
2023-05-26T10:52:27.088Z,22.20
2023-05-26T10:55:32.568Z,22.10
2023-05-26T10:58:36.347Z,22.10
2023-05-26T11:01:28.977Z,22.10
2023-05-26T11:04:16.579Z,22.20
2023-05-26T11:07:05.924Z,22.20
2023-05-26T11:10:00.717Z,22.20
2023-05-26T11:12:50.142Z,22.20
2023-05-26T11:15:38.680Z,22.20
2023-05-26T11:18:27.406Z,22.20
2023-05-26T11:21:15.103Z,22.20
2023-05-26T11:24:04.853Z,22.20
2023-05-26T11:26:52.873Z,22.20
2023-05-26T11:29:40.703Z,22.20
2023-05-26T11:32:29.686Z,22.20
2023-05-26T11:35:24.020Z,22.20
2023-05-26T11:38:11.528Z,22.20
2023-05-26T11:41:00.901Z,22.20
2023-05-26T11:43:48.917Z,22.20
2023-05-26T11:46:38.888Z,22.20
2023-05-26T11:49:26.558Z,22.20
2023-05-26T11:52:17.354Z,22.20
2023-05-26T11:55:06.234Z,22.20
2023-05-26T11:57:55.390Z,22.20
2023-05-26T12:00:43.949Z,22.20
2023-05-26T12:03:41.361Z,22.20
2023-05-26T12:06:29.932Z,22.20
2023-05-26T12:09:22.601Z,22.20
2023-05-26T12:12:14.210Z,22.20
2023-05-26T12:15:08.030Z,22.20
2023-05-26T12:17:56.774Z,22.20
2023-05-26T12:20:45.501Z,22.20
2023-05-26T12:23:33.192Z,22.20
2023-05-26T12:26:24.013Z,22.20
2023-05-26T12:29:12.850Z,22.20
2023-05-26T12:32:01.886Z,22.20
2023-05-26T12:34:49.545Z,22.20
2023-05-26T12:37:37.537Z,22.20
2023-05-26T12:40:25.417Z,22.20
2023-05-26T12:43:13.215Z,22.20
2023-05-26T12:46:01.063Z,22.20
2023-05-26T12:48:50.475Z,22.20
2023-05-26T12:51:39.949Z,22.20
2023-05-26T12:54:28.651Z,22.20
2023-05-26T12:57:16.276Z,22.20
2023-05-26T13:00:04.660Z,22.30
2023-05-26T13:02:52.466Z,22.30
2023-05-26T13:05:42.009Z,22.20
2023-05-26T13:08:29.697Z,22.20
2023-05-26T13:11:17.282Z,22.30
2023-05-26T13:14:05.351Z,22.20
2023-05-26T13:16:53.467Z,22.30
2023-05-26T13:19:41.170Z,22.30
2023-05-26T13:22:31.142Z,22.30
2023-05-26T13:25:18.893Z,22.30
2023-05-26T13:28:07.300Z,22.30
2023-05-26T13:30:55.530Z,22.30
2023-05-26T13:33:43.367Z,22.30
2023-05-26T13:36:31.225Z,22.30
2023-05-26T13:39:20.527Z,22.30
2023-05-26T13:42:08.440Z,22.30
2023-05-26T13:44:56.210Z,22.30
2023-05-26T13:47:44.380Z,22.30
2023-05-26T13:50:32.524Z,22.30
2023-05-26T13:53:20.742Z,22.30
2023-05-26T13:58:47.142Z,22.40
2023-05-26T13:59:18.525Z,22.30
2023-05-26T14:02:06.774Z,22.40
2023-05-26T14:04:54.544Z,22.40
2023-05-26T14:07:42.767Z,22.40
2023-05-26T14:10:31.778Z,22.40
2023-05-26T14:13:20.706Z,22.40
2023-05-26T14:16:09.195Z,22.40
2023-05-26T14:19:06.492Z,22.40
2023-05-26T14:22:09.530Z,22.40
2023-05-26T14:25:06.326Z,22.40
2023-05-26T14:27:54.474Z,22.50
2023-05-26T14:30:43.724Z,22.50
2023-05-26T14:33:31.625Z,22.50
2023-05-26T14:36:19.596Z,22.50
2023-05-26T14:39:08.772Z,22.50
2023-05-26T14:41:56.347Z,22.60
2023-05-26T14:44:44.123Z,22.60
2023-05-26T14:47:33.453Z,22.60
2023-05-26T14:50:23.022Z,22.60
2023-05-26T14:53:10.849Z,22.60
2023-05-26T14:55:58.883Z,22.60
2023-05-26T14:58:46.833Z,22.60
2023-05-26T15:01:34.436Z,22.60
2023-05-26T15:04:23.800Z,22.60
2023-05-26T15:07:11.643Z,22.60
2023-05-26T15:09:59.513Z,22.70
2023-05-26T15:12:47.397Z,22.70
2023-05-26T15:15:38.796Z,22.70
2023-05-26T15:18:26.789Z,22.70
2023-05-26T15:21:15.703Z,22.70
2023-05-26T15:24:05.532Z,22.70
2023-05-26T15:26:54.805Z,22.70
2023-05-26T15:29:43.190Z,22.70
2023-05-26T15:32:31.345Z,22.70
2023-05-26T15:35:20.830Z,22.70
2023-05-26T15:38:09.890Z,22.70
2023-05-26T15:40:58.423Z,22.70
2023-05-26T15:43:46.393Z,22.80
2023-05-26T15:46:34.464Z,22.70
2023-05-26T15:49:23.129Z,22.80
2023-05-26T15:52:10.824Z,22.80
2023-05-26T15:55:00.396Z,22.80
2023-05-26T15:57:48.020Z,22.80
2023-05-26T16:00:36.201Z,22.80
2023-05-26T16:03:24.078Z,22.80
2023-05-26T16:06:12.316Z,22.80
2023-05-26T16:09:00.124Z,22.80
2023-05-26T16:11:49.348Z,22.80
2023-05-26T16:14:37.376Z,22.80
2023-05-26T16:17:25.171Z,22.80
2023-05-26T16:20:13.154Z,22.90
2023-05-26T16:23:01.157Z,22.90
2023-05-26T16:25:52.469Z,22.90
2023-05-26T16:28:41.385Z,22.90
2023-05-26T16:31:29.341Z,22.90
2023-05-26T16:34:17.362Z,22.90
2023-05-26T16:37:05.428Z,22.90
2023-05-26T16:39:53.037Z,22.90
2023-05-26T16:42:41.462Z,23.00
2023-05-26T16:45:30.860Z,23.00
2023-05-26T16:48:18.850Z,23.00
2023-05-26T16:51:06.800Z,23.00
2023-05-26T16:53:54.323Z,23.00
2023-05-26T16:56:42.265Z,23.00
2023-05-26T16:59:30.376Z,23.10
2023-05-26T17:02:19.542Z,23.10
2023-05-26T17:05:08.346Z,23.10
2023-05-26T17:07:56.956Z,23.10
2023-05-26T17:10:46.568Z,23.10
2023-05-26T17:13:34.442Z,23.10
2023-05-26T17:16:22.198Z,23.10
2023-05-26T17:19:11.382Z,23.10
2023-05-26T17:21:59.900Z,23.10
2023-05-26T17:24:47.529Z,23.10
2023-05-26T17:27:35.422Z,23.10
2023-05-26T17:30:23.079Z,23.10
2023-05-26T17:33:10.983Z,23.10
2023-05-26T17:36:00.175Z,23.20
2023-05-26T17:38:48.135Z,23.20
2023-05-26T17:41:36.131Z,23.20
2023-05-26T17:44:25.067Z,23.20
2023-05-26T17:47:12.811Z,23.20
2023-05-26T17:50:01.238Z,23.20
2023-05-26T17:52:50.475Z,23.20
2023-05-26T17:55:38.422Z,23.20
2023-05-26T17:58:26.235Z,23.20
2023-05-26T18:01:14.169Z,23.20
2023-05-26T18:04:01.999Z,23.20
2023-05-26T18:06:50.022Z,23.20
2023-05-26T18:09:40.880Z,23.20
2023-05-26T18:12:28.787Z,23.20
2023-05-26T18:15:16.839Z,23.20
2023-05-26T18:18:04.792Z,23.20
2023-05-26T18:20:53.843Z,23.20
2023-05-26T18:23:43.820Z,23.20
2023-05-26T18:26:33.441Z,23.20
2023-05-26T18:29:21.397Z,23.20
2023-05-26T18:32:10.708Z,23.20
2023-05-26T18:34:58.376Z,23.20
2023-05-26T18:37:46.610Z,23.20
2023-05-26T18:40:34.352Z,23.20
2023-05-26T18:43:23.979Z,23.20
2023-05-26T18:46:11.440Z,23.20
2023-05-26T18:48:59.489Z,23.20
2023-05-26T18:51:48.069Z,23.20
2023-05-26T18:54:36.248Z,23.20
2023-05-26T18:57:23.989Z,23.20
2023-05-26T19:00:15.673Z,23.20
2023-05-26T19:03:03.599Z,23.20
2023-05-26T19:05:51.499Z,23.20
2023-05-26T19:08:39.382Z,23.20
2023-05-26T19:11:27.340Z,23.20
2023-05-26T19:14:15.400Z,23.20
2023-05-26T19:17:05.078Z,23.20
2023-05-26T19:19:54.712Z,23.20
2023-05-26T19:22:43.338Z,23.20
2023-05-26T19:25:31.062Z,23.20
2023-05-26T19:28:19.451Z,23.20
2023-05-26T19:31:07.338Z,23.20
2023-05-26T19:33:56.648Z,23.20
2023-05-26T19:36:44.358Z,23.20
2023-05-26T19:39:32.157Z,23.20
2023-05-26T19:42:20.148Z,23.20
2023-05-26T19:45:09.241Z,23.20
2023-05-26T19:47:56.909Z,23.20
2023-05-26T19:50:46.385Z,23.20
2023-05-26T19:53:34.354Z,23.20
2023-05-26T19:56:22.902Z,23.20
2023-05-26T19:59:11.320Z,23.20
2023-05-26T20:01:58.915Z,23.10
2023-05-26T20:04:46.724Z,23.20
2023-05-26T20:07:36.837Z,23.20
2023-05-26T20:10:24.979Z,23.10
2023-05-26T20:13:12.824Z,23.20
2023-05-26T20:16:00.386Z,23.10
2023-05-26T20:18:48.282Z,23.10
2023-05-26T20:21:36.357Z,23.10
2023-05-26T20:24:25.905Z,23.10
2023-05-26T20:27:13.541Z,23.10
2023-05-26T20:30:01.392Z,23.10
2023-05-26T20:32:49.427Z,23.10
2023-05-26T20:35:37.850Z,23.10
2023-05-26T20:38:25.622Z,23.10
2023-05-26T20:41:14.898Z,23.10
2023-05-26T20:44:02.851Z,23.10
2023-05-26T20:46:50.805Z,23.10
2023-05-26T20:49:38.628Z,23.10
2023-05-26T20:52:26.782Z,23.10
2023-05-26T20:55:14.543Z,23.10
2023-05-26T20:58:04.114Z,23.10
2023-05-26T21:00:51.769Z,23.00
2023-05-26T21:03:39.668Z,23.00
2023-05-26T21:06:27.650Z,23.10
2023-05-26T21:09:15.963Z,23.00
2023-05-26T21:12:03.875Z,23.00
2023-05-26T21:14:52.692Z,23.00
2023-05-26T21:17:40.531Z,23.00
2023-05-26T21:20:28.181Z,23.00
2023-05-26T21:23:16.221Z,23.00
2023-05-26T21:26:04.254Z,23.00
2023-05-26T21:28:52.390Z,23.00
2023-05-26T21:31:41.730Z,23.00
2023-05-26T21:34:29.637Z,23.00
2023-05-26T21:37:17.650Z,23.00
2023-05-26T21:40:06.308Z,22.90
2023-05-26T21:42:53.964Z,22.90
2023-05-26T21:45:41.880Z,23.00
2023-05-26T21:48:31.032Z,22.90
2023-05-26T21:51:18.491Z,22.90
2023-05-26T21:54:07.035Z,22.90
2023-05-26T21:56:54.809Z,23.00
2023-05-26T21:59:42.769Z,22.90
2023-05-26T22:02:31.154Z,22.90
2023-05-26T22:05:21.117Z,22.90
2023-05-26T22:08:09.190Z,22.90
2023-05-26T22:10:57.179Z,22.90
2023-05-26T22:13:44.893Z,22.90
2023-05-26T22:16:32.810Z,22.90
2023-05-26T22:19:20.542Z,22.80
2023-05-26T22:22:09.902Z,22.80
2023-05-26T22:24:57.875Z,22.80
2023-05-26T22:27:45.805Z,22.80
2023-05-26T22:30:33.785Z,22.80
2023-05-26T22:33:21.606Z,22.80
2023-05-26T22:36:09.427Z,22.80
2023-05-26T22:38:58.666Z,22.80
2023-05-26T22:41:46.475Z,22.70
2023-05-26T22:44:34.478Z,22.70
2023-05-26T22:47:22.594Z,22.70
2023-05-26T22:50:11.234Z,22.70
2023-05-26T22:52:59.062Z,22.70
2023-05-26T22:55:56.963Z,22.70
2023-05-26T22:58:48.555Z,22.70
2023-05-26T23:01:36.370Z,22.70
2023-05-26T23:04:24.330Z,22.70
2023-05-26T23:07:12.791Z,22.60
2023-05-26T23:10:00.312Z,22.70
2023-05-26T23:12:49.546Z,22.70
2023-05-26T23:15:37.474Z,22.60
2023-05-26T23:18:25.580Z,22.60
2023-05-26T23:21:13.460Z,22.60
2023-05-26T23:24:01.247Z,22.60
2023-05-26T23:26:53.002Z,22.60
2023-05-26T23:29:42.602Z,22.60
2023-05-26T23:32:30.650Z,22.60
2023-05-26T23:35:18.756Z,22.50
2023-05-26T23:38:06.539Z,22.50
2023-05-26T23:40:54.458Z,22.50
2023-05-26T23:43:42.121Z,22.50
2023-05-26T23:46:31.433Z,22.50
2023-05-26T23:49:20.040Z,22.50
2023-05-26T23:52:08.726Z,22.50
2023-05-26T23:54:56.227Z,22.50
2023-05-26T23:57:43.833Z,22.40
